createdAt,value
2023-01-19T00:01:43.551Z,14.60
2023-01-19T00:04:11.390Z,14.73
2023-01-19T00:06:39.416Z,13.93
2023-01-19T00:09:07.116Z,12.80
2023-01-19T00:11:35.044Z,13.00
2023-01-19T00:14:03.489Z,14.53
2023-01-19T00:16:31.463Z,13.37
2023-01-19T00:18:59.389Z,13.23
2023-01-19T00:21:27.201Z,13.70
2023-01-19T00:23:55.064Z,15.87
2023-01-19T00:26:22.950Z,13.80
2023-01-19T00:28:51.382Z,13.77
2023-01-19T00:31:21.837Z,13.30
2023-01-19T00:33:51.760Z,12.37
2023-01-19T00:36:20.389Z,14.00
2023-01-19T00:38:48.346Z,14.73
2023-01-19T00:41:17.456Z,13.03
2023-01-19T00:43:45.177Z,13.30
2023-01-19T00:46:13.031Z,13.10
2023-01-19T00:48:40.994Z,12.80
2023-01-19T00:51:08.683Z,14.77
2023-01-19T00:53:36.819Z,14.80
2023-01-19T00:56:05.071Z,14.80
2023-01-19T00:58:32.949Z,13.80
2023-01-19T01:01:04.874Z,14.30
2023-01-19T01:03:33.712Z,14.13
2023-01-19T01:06:01.923Z,11.67
2023-01-19T01:08:32.205Z,13.07
2023-01-19T01:11:00.290Z,13.13
2023-01-19T01:13:29.327Z,13.80
2023-01-19T01:15:58.001Z,13.27
2023-01-19T01:18:26.437Z,14.30
2023-01-19T01:21:01.727Z,14.17
2023-01-19T01:23:29.729Z,14.80
2023-01-19T01:25:57.432Z,12.93
2023-01-19T01:28:26.857Z,14.00
2023-01-19T01:30:57.516Z,13.40
2023-01-19T01:33:41.241Z,13.00
2023-01-19T01:36:12.172Z,15.47
2023-01-19T01:38:42.502Z,14.77
2023-01-19T01:41:10.733Z,13.80
2023-01-19T01:43:58.546Z,14.87
2023-01-19T01:46:32.162Z,13.70
2023-01-19T01:49:17.788Z,13.13
2023-01-19T01:51:55.190Z,13.30
2023-01-19T01:54:33.700Z,13.97
2023-01-19T01:57:12.946Z,14.53
2023-01-19T01:59:50.697Z,14.30
2023-01-19T02:02:50.924Z,13.97
2023-01-19T02:05:35.624Z,14.37
2023-01-19T02:09:05.796Z,13.23
2023-01-19T02:11:54.606Z,14.10
2023-01-19T02:14:22.867Z,13.53
2023-01-19T02:16:50.851Z,13.10
2023-01-19T02:19:42.565Z,13.37
2023-01-19T02:22:40.741Z,14.43
2023-01-19T02:25:09.352Z,13.50
2023-01-19T02:27:37.919Z,13.87
2023-01-19T02:30:08.667Z,13.43
2023-01-19T02:32:36.625Z,12.47
2023-01-19T02:35:05.539Z,13.33
2023-01-19T02:37:40.209Z,14.13
2023-01-19T02:40:22.264Z,14.80
2023-01-19T02:42:56.698Z,12.70
2023-01-19T02:45:27.354Z,12.63
2023-01-19T02:47:55.498Z,15.03
2023-01-19T02:50:49.509Z,13.50
2023-01-19T02:54:35.771Z,12.93
2023-01-19T02:58:14.375Z,14.27
2023-01-19T03:01:21.804Z,13.57
2023-01-19T03:04:34.263Z,12.87
2023-01-19T03:07:21.370Z,14.10
2023-01-19T03:10:31.012Z,12.20
2023-01-19T03:13:26.482Z,15.00
2023-01-19T03:16:26.010Z,12.57
2023-01-19T03:19:17.012Z,13.40
2023-01-19T03:22:05.585Z,13.10
2023-01-19T03:24:42.239Z,12.13
2023-01-19T03:27:41.367Z,13.93
2023-01-19T03:30:26.183Z,12.27
2023-01-19T03:33:12.920Z,14.07
2023-01-19T03:35:54.905Z,13.20
2023-01-19T03:38:29.013Z,11.90
2023-01-19T03:41:08.722Z,14.13
2023-01-19T03:43:40.516Z,13.53
2023-01-19T03:46:11.307Z,12.83
2023-01-19T03:48:39.838Z,11.77
2023-01-19T03:51:11.442Z,11.80
2023-01-19T03:53:39.326Z,12.93
2023-01-19T03:56:18.829Z,12.53
2023-01-19T03:58:47.605Z,12.80
2023-01-19T04:01:18.797Z,12.50
2023-01-19T04:03:47.485Z,12.07
2023-01-19T04:06:15.359Z,13.90
2023-01-19T04:08:43.295Z,13.00
2023-01-19T04:11:11.362Z,12.20
2023-01-19T04:13:39.247Z,14.00
2023-01-19T04:16:08.095Z,13.60
2023-01-19T04:18:36.130Z,14.37
2023-01-19T04:21:08.247Z,12.87
2023-01-19T04:23:36.159Z,13.60
2023-01-19T04:26:09.529Z,14.33
2023-01-19T04:28:37.692Z,13.00
2023-01-19T04:31:08.097Z,13.80
2023-01-19T04:33:35.871Z,13.20
2023-01-19T04:36:04.289Z,13.90
2023-01-19T04:38:32.043Z,13.87
2023-01-19T04:40:59.758Z,14.13
2023-01-19T04:43:27.529Z,13.87
2023-01-19T04:45:55.292Z,16.70
2023-01-19T04:48:23.146Z,14.27
2023-01-19T04:50:52.838Z,13.73
2023-01-19T04:53:20.697Z,15.13
2023-01-19T04:55:52.688Z,15.03
2023-01-19T04:58:20.598Z,16.33
2023-01-19T05:00:48.610Z,16.37
2023-01-19T05:03:16.261Z,14.47
2023-01-19T05:05:44.001Z,16.00
2023-01-19T05:08:11.904Z,16.77
2023-01-19T05:10:39.658Z,16.23
2023-01-19T05:13:07.603Z,17.23
2023-01-19T05:15:35.438Z,18.97
2023-01-19T05:18:03.232Z,20.70
2023-01-19T05:20:30.920Z,19.50
2023-01-19T05:22:59.220Z,18.10
2023-01-19T05:25:27.326Z,17.07
2023-01-19T05:27:54.947Z,17.73
2023-01-19T05:30:22.822Z,16.43
2023-01-19T05:32:51.285Z,17.00
2023-01-19T05:35:27.744Z,15.90
2023-01-19T05:37:59.584Z,15.23
2023-01-19T05:40:27.236Z,15.70
2023-01-19T05:42:55.137Z,17.53
2023-01-19T05:45:22.737Z,16.43
2023-01-19T05:47:51.097Z,14.23
2023-01-19T05:50:18.956Z,16.83
2023-01-19T05:52:47.208Z,16.00
2023-01-19T05:55:16.654Z,16.33
2023-01-19T05:57:44.422Z,16.20
2023-01-19T06:00:13.854Z,17.40
2023-01-19T06:02:41.789Z,20.07
2023-01-19T06:05:10.486Z,19.00
2023-01-19T06:07:38.295Z,18.47
2023-01-19T06:10:07.864Z,18.40
2023-01-19T06:12:36.122Z,20.50
2023-01-19T06:15:04.775Z,20.17
2023-01-19T06:17:36.453Z,19.87
2023-01-19T06:20:05.521Z,21.70
2023-01-19T06:22:33.552Z,19.83
2023-01-19T06:25:01.283Z,21.00
2023-01-19T06:27:29.342Z,21.27
2023-01-19T06:29:57.204Z,23.37
2023-01-19T06:32:24.978Z,20.40
2023-01-19T06:34:54.014Z,20.17
2023-01-19T06:37:21.964Z,18.33
2023-01-19T06:39:49.714Z,18.80
2023-01-19T06:42:17.313Z,18.27
2023-01-19T06:44:47.623Z,18.87
2023-01-19T06:47:16.936Z,15.43
2023-01-19T06:49:44.977Z,17.60
2023-01-19T06:52:17.708Z,14.50
2023-01-19T06:54:46.326Z,15.60
2023-01-19T06:57:15.403Z,13.67
2023-01-19T06:59:43.065Z,15.43
2023-01-19T07:02:27.665Z,15.77
2023-01-19T07:04:57.242Z,16.13
2023-01-19T07:07:25.309Z,15.73
2023-01-19T07:09:54.338Z,15.03
2023-01-19T07:12:23.485Z,18.50
2023-01-19T07:14:51.818Z,16.93
2023-01-19T07:17:20.477Z,17.40
2023-01-19T07:19:48.170Z,15.57
2023-01-19T07:22:15.875Z,19.63
2023-01-19T07:24:43.995Z,18.87
2023-01-19T07:27:11.747Z,20.87
2023-01-19T07:29:40.017Z,17.60
2023-01-19T07:32:08.197Z,24.20
2023-01-19T07:34:36.566Z,21.17
2023-01-19T07:37:04.572Z,20.30
2023-01-19T07:39:32.256Z,20.03
2023-01-19T07:42:00.483Z,22.20
2023-01-19T07:44:28.163Z,21.00
2023-01-19T07:46:55.943Z,23.13
2023-01-19T07:49:23.634Z,21.77
2023-01-19T07:51:51.263Z,22.43
2023-01-19T07:54:19.067Z,19.87
2023-01-19T07:56:46.779Z,21.00
2023-01-19T07:59:14.800Z,24.00
2023-01-19T08:01:42.563Z,19.63
2023-01-19T08:04:11.131Z,19.53
2023-01-19T08:06:41.226Z,21.33
2023-01-19T08:09:09.089Z,20.20
2023-01-19T08:11:36.833Z,20.70
2023-01-19T08:14:07.881Z,21.63
2023-01-19T08:16:37.216Z,20.57
2023-01-19T08:19:05.721Z,19.20
2023-01-19T08:21:33.783Z,21.53
2023-01-19T08:24:01.625Z,19.37
2023-01-19T08:26:35.706Z,18.90
2023-01-19T08:29:06.193Z,20.67
2023-01-19T08:31:34.177Z,22.00
2023-01-19T08:34:02.057Z,23.10
2023-01-19T08:36:30.559Z,23.17
2023-01-19T08:38:58.408Z,24.57
2023-01-19T08:41:26.999Z,25.50
2023-01-19T08:43:55.314Z,25.60
2023-01-19T08:46:24.242Z,27.57
2023-01-19T08:48:51.912Z,28.47
2023-01-19T08:51:19.878Z,26.77
2023-01-19T08:53:48.339Z,27.77
2023-01-19T08:56:16.645Z,27.17
2023-01-19T08:58:49.399Z,30.67
2023-01-19T09:01:25.585Z,28.30
2023-01-19T09:03:54.679Z,24.70
2023-01-19T09:06:23.618Z,28.80
2023-01-19T09:08:51.537Z,26.17
2023-01-19T09:11:19.970Z,23.80
2023-01-19T09:13:47.779Z,26.63
2023-01-19T09:16:16.031Z,26.40
2023-01-19T09:18:46.273Z,27.47
2023-01-19T09:21:15.196Z,24.87
2023-01-19T09:23:43.170Z,27.47
2023-01-19T09:26:11.454Z,26.10
2023-01-19T09:28:39.860Z,27.43
2023-01-19T09:31:09.960Z,27.93
2023-01-19T09:33:38.034Z,27.37
2023-01-19T09:36:06.522Z,29.67
2023-01-19T09:38:34.258Z,27.77
2023-01-19T09:41:02.324Z,29.47
2023-01-19T09:43:47.555Z,27.43
2023-01-19T09:46:40.545Z,29.10
2023-01-19T09:49:28.102Z,29.17
2023-01-19T09:51:55.790Z,31.90
2023-01-19T09:54:59.206Z,29.10
2023-01-19T09:57:30.174Z,25.83
2023-01-19T10:00:00.762Z,26.97
2023-01-19T10:02:59.340Z,27.30
2023-01-19T10:05:52.118Z,30.40
2023-01-19T10:09:17.452Z,28.67
2023-01-19T10:12:31.969Z,28.33
2023-01-19T10:15:42.472Z,26.80
2023-01-19T10:18:52.321Z,26.80
2023-01-19T10:21:41.076Z,30.50
2023-01-19T10:24:45.599Z,26.40
2023-01-19T10:27:27.413Z,25.90
2023-01-19T10:30:02.502Z,26.27
2023-01-19T10:32:43.382Z,28.43
2023-01-19T10:35:26.342Z,27.43
2023-01-19T10:38:04.931Z,29.00
2023-01-19T10:41:12.312Z,24.90
2023-01-19T10:43:46.048Z,24.87
2023-01-19T10:46:46.142Z,25.10
2023-01-19T10:49:42.740Z,25.43
2023-01-19T10:52:39.835Z,24.03
2023-01-19T10:55:35.025Z,27.07
2023-01-19T10:58:03.095Z,25.97
2023-01-19T11:00:43.088Z,26.67
2023-01-19T11:03:32.663Z,22.90
2023-01-19T11:06:15.673Z,25.57
2023-01-19T11:08:48.519Z,23.50
2023-01-19T11:11:16.415Z,25.03
2023-01-19T11:13:45.374Z,21.87
2023-01-19T11:16:35.892Z,25.53
2023-01-19T11:19:05.328Z,25.47
2023-01-19T11:21:34.397Z,24.13
2023-01-19T11:24:13.380Z,23.20
2023-01-19T11:27:02.991Z,22.83
2023-01-19T11:29:32.080Z,24.03
2023-01-19T11:32:23.309Z,20.83
2023-01-19T11:34:51.194Z,23.00
2023-01-19T11:37:19.011Z,22.30
2023-01-19T11:40:02.773Z,20.77
2023-01-19T11:42:36.668Z,24.33
2023-01-19T11:45:20.251Z,22.07
2023-01-19T11:47:51.912Z,25.30
2023-01-19T11:50:44.376Z,23.93
2023-01-19T11:53:29.316Z,24.80
2023-01-19T11:56:23.878Z,27.47
2023-01-19T11:58:52.064Z,27.57
2023-01-19T12:01:35.807Z,27.93
2023-01-19T12:04:19.425Z,29.83
2023-01-19T12:06:56.655Z,29.93
2023-01-19T12:09:42.942Z,30.13
2023-01-19T12:12:33.568Z,28.53
2023-01-19T12:15:35.157Z,29.77
2023-01-19T12:18:13.054Z,27.23
2023-01-19T12:20:54.930Z,31.20
2023-01-19T12:23:53.869Z,31.30
2023-01-19T12:26:55.611Z,26.97
2023-01-19T12:29:33.827Z,27.63
2023-01-19T12:32:20.391Z,25.73
2023-01-19T12:34:52.430Z,28.70
2023-01-19T12:37:42.410Z,27.47
2023-01-19T12:40:31.491Z,26.37
2023-01-19T12:43:07.867Z,26.73
2023-01-19T12:45:39.922Z,25.30
2023-01-19T12:48:28.181Z,27.90
2023-01-19T12:50:56.022Z,31.50
2023-01-19T12:53:23.800Z,27.07
2023-01-19T12:56:10.189Z,30.33
2023-01-19T12:58:38.021Z,28.60
2023-01-19T13:01:21.887Z,28.07
2023-01-19T13:04:38.851Z,27.57
2023-01-19T13:07:10.715Z,27.67
2023-01-19T13:09:40.319Z,34.03
2023-01-19T13:12:27.041Z,33.23
2023-01-19T13:15:35.686Z,31.43
2023-01-19T13:18:04.761Z,29.20
2023-01-19T13:21:03.583Z,29.60
2023-01-19T13:23:57.402Z,30.77
2023-01-19T13:27:00.252Z,29.93
2023-01-19T13:29:43.079Z,28.37
2023-01-19T13:32:21.546Z,30.30
2023-01-19T13:34:59.233Z,29.17
2023-01-19T13:37:45.388Z,29.00
2023-01-19T13:40:37.010Z,28.53
2023-01-19T13:43:18.294Z,25.10
2023-01-19T13:45:53.532Z,25.00
2023-01-19T13:48:24.783Z,27.37
2023-01-19T13:51:07.349Z,24.70
2023-01-19T13:53:36.689Z,23.80
2023-01-19T13:56:21.947Z,25.23
2023-01-19T13:59:10.473Z,22.47
2023-01-19T14:01:46.911Z,24.27
2023-01-19T14:04:34.570Z,22.40
2023-01-19T14:07:23.532Z,21.57
2023-01-19T14:10:06.397Z,22.40
2023-01-19T14:12:36.135Z,21.83
2023-01-19T14:15:14.491Z,20.83
2023-01-19T14:17:42.790Z,20.57
2023-01-19T14:20:30.908Z,18.93
2023-01-19T14:22:58.802Z,19.77
2023-01-19T14:25:38.705Z,21.80
2023-01-19T14:28:44.667Z,20.00
2023-01-19T14:31:28.211Z,18.70
2023-01-19T14:33:58.688Z,17.60
2023-01-19T14:36:39.898Z,16.70
2023-01-19T14:39:25.175Z,16.20
2023-01-19T14:41:57.682Z,17.10
2023-01-19T14:44:39.255Z,14.73
2023-01-19T14:47:41.624Z,16.43
2023-01-19T14:50:30.361Z,16.20
2023-01-19T14:53:24.532Z,16.03
2023-01-19T14:56:05.629Z,15.90
2023-01-19T14:58:36.246Z,18.03
2023-01-19T15:01:04.967Z,18.47
2023-01-19T15:03:44.312Z,17.10
2023-01-19T15:06:23.594Z,16.47
2023-01-19T15:08:55.861Z,16.67
2023-01-19T15:11:36.663Z,16.27
2023-01-19T15:14:04.505Z,17.43
2023-01-19T15:16:35.023Z,16.43
2023-01-19T15:19:02.833Z,17.03
2023-01-19T15:21:30.652Z,17.50
2023-01-19T15:23:58.711Z,17.13
2023-01-19T15:26:27.990Z,16.70
2023-01-19T15:28:57.370Z,20.23
2023-01-19T15:31:27.176Z,16.43
2023-01-19T15:33:55.605Z,17.67
2023-01-19T15:36:25.554Z,16.03
2023-01-19T15:38:53.483Z,15.23
2023-01-19T15:41:30.116Z,18.27
2023-01-19T15:43:59.395Z,18.77
2023-01-19T15:46:28.274Z,16.67
2023-01-19T15:48:56.213Z,17.47
2023-01-19T15:51:27.402Z,18.00
2023-01-19T15:53:56.640Z,19.43
2023-01-19T15:56:30.678Z,16.97
2023-01-19T15:59:02.077Z,17.40
2023-01-19T16:01:34.765Z,17.43
2023-01-19T16:04:08.109Z,18.10
2023-01-19T16:06:36.342Z,16.37
2023-01-19T16:09:09.172Z,18.00
2023-01-19T16:11:38.453Z,17.27
2023-01-19T16:14:06.242Z,18.47
2023-01-19T16:16:35.419Z,19.00
2023-01-19T16:19:03.358Z,18.50
2023-01-19T16:21:31.161Z,18.37
2023-01-19T16:23:59.003Z,19.50
2023-01-19T16:26:34.692Z,19.70
2023-01-19T16:29:10.811Z,21.70
2023-01-19T16:31:45.647Z,20.47
2023-01-19T16:34:13.443Z,19.00
2023-01-19T16:36:42.833Z,18.40
2023-01-19T16:39:16.070Z,19.60
2023-01-19T16:41:46.351Z,18.40
2023-01-19T16:44:17.661Z,19.40
2023-01-19T16:46:49.841Z,18.53
2023-01-19T16:49:28.595Z,19.33
2023-01-19T16:51:58.834Z,19.13
2023-01-19T16:54:29.395Z,19.00
2023-01-19T16:56:59.002Z,20.77
2023-01-19T16:59:27.575Z,18.70
2023-01-19T17:01:56.204Z,21.17
2023-01-19T17:04:39.087Z,19.77
2023-01-19T17:07:06.892Z,17.97
2023-01-19T17:09:34.861Z,17.83
2023-01-19T17:12:02.593Z,17.73
2023-01-19T17:14:30.214Z,16.77
2023-01-19T17:16:59.752Z,16.07
2023-01-19T17:19:30.264Z,17.03
2023-01-19T17:21:58.193Z,17.50
2023-01-19T17:24:25.994Z,17.27
2023-01-19T17:26:53.792Z,15.70
2023-01-19T17:29:21.439Z,16.23
2023-01-19T17:31:52.077Z,17.73
2023-01-19T17:34:19.851Z,18.50
2023-01-19T17:36:50.617Z,17.47
2023-01-19T17:39:18.687Z,17.80
2023-01-19T17:41:46.869Z,17.70
2023-01-19T17:44:15.518Z,16.37
2023-01-19T17:46:45.120Z,19.13
2023-01-19T17:49:13.055Z,19.93
2023-01-19T17:51:40.948Z,19.40
2023-01-19T17:54:10.954Z,20.63
2023-01-19T17:56:41.429Z,19.83
2023-01-19T17:59:10.032Z,20.60
2023-01-19T18:01:40.697Z,19.23
2023-01-19T18:04:09.724Z,19.60
2023-01-19T18:06:39.083Z,20.83
2023-01-19T18:09:08.164Z,18.57
2023-01-19T18:11:39.162Z,22.30
2023-01-19T18:14:07.205Z,20.70
2023-01-19T18:16:36.253Z,20.57
2023-01-19T18:19:04.456Z,20.20
2023-01-19T18:21:32.633Z,20.53
2023-01-19T18:24:06.649Z,20.33
2023-01-19T18:26:37.934Z,21.20
2023-01-19T18:29:06.028Z,22.53
2023-01-19T18:31:34.460Z,21.23
2023-01-19T18:34:04.400Z,25.17
2023-01-19T18:36:34.429Z,22.93
2023-01-19T18:39:02.759Z,23.00
2023-01-19T18:41:31.101Z,22.50
2023-01-19T18:43:59.855Z,23.20
2023-01-19T18:46:27.854Z,22.37
2023-01-19T18:48:55.632Z,22.30
2023-01-19T18:51:23.657Z,19.27
2023-01-19T18:53:51.725Z,21.97
2023-01-19T18:56:20.007Z,22.70
2023-01-19T18:58:48.056Z,21.93
2023-01-19T19:01:33.015Z,22.33
2023-01-19T19:04:01.961Z,21.20
2023-01-19T19:06:29.852Z,21.87
2023-01-19T19:08:59.665Z,22.47
2023-01-19T19:11:28.715Z,21.70
2023-01-19T19:14:02.245Z,20.77
2023-01-19T19:16:33.350Z,22.47
2023-01-19T19:19:02.993Z,24.20
2023-01-19T19:21:30.732Z,24.10
2023-01-19T19:23:59.380Z,23.77
2023-01-19T19:26:28.555Z,22.73
2023-01-19T19:28:57.132Z,22.40
2023-01-19T19:31:27.628Z,22.37
2023-01-19T19:33:59.813Z,22.80
2023-01-19T19:36:29.239Z,21.87
2023-01-19T19:38:59.769Z,21.90
2023-01-19T19:41:32.298Z,21.40
2023-01-19T19:44:01.058Z,23.63
2023-01-19T19:46:29.322Z,22.50
2023-01-19T19:48:57.312Z,23.13
2023-01-19T19:51:28.828Z,24.50
2023-01-19T19:54:01.299Z,26.50
2023-01-19T19:56:34.354Z,23.87
2023-01-19T19:59:02.809Z,23.03
2023-01-19T20:01:33.671Z,24.87
2023-01-19T20:04:13.012Z,25.23
2023-01-19T20:06:44.883Z,25.33
2023-01-19T20:09:15.735Z,24.30
2023-01-19T20:11:50.152Z,24.60
2023-01-19T20:14:18.382Z,23.73
2023-01-19T20:16:46.237Z,23.90
2023-01-19T20:19:14.523Z,23.70
2023-01-19T20:21:43.428Z,21.33
2023-01-19T20:24:19.980Z,23.17
2023-01-19T20:26:54.858Z,23.47
2023-01-19T20:29:23.218Z,24.47
2023-01-19T20:31:57.146Z,24.80
2023-01-19T20:34:33.457Z,25.33
2023-01-19T20:37:04.821Z,26.13
2023-01-19T20:39:35.353Z,25.60
2023-01-19T20:42:06.014Z,25.53
2023-01-19T20:44:33.895Z,24.63
2023-01-19T20:47:01.794Z,24.33
2023-01-19T20:49:29.616Z,25.30
2023-01-19T20:51:57.481Z,22.80
2023-01-19T20:54:30.611Z,23.20
2023-01-19T20:56:59.962Z,22.90
2023-01-19T20:59:28.287Z,22.70
2023-01-19T21:01:58.947Z,22.47
2023-01-19T21:04:26.899Z,22.03
2023-01-19T21:06:54.744Z,23.50
2023-01-19T21:09:22.997Z,23.67
2023-01-19T21:11:50.745Z,22.50
2023-01-19T21:14:18.549Z,22.10
2023-01-19T21:16:46.344Z,22.10
2023-01-19T21:19:14.229Z,23.20
2023-01-19T21:21:41.921Z,20.97
2023-01-19T21:24:11.640Z,23.03
2023-01-19T21:26:42.013Z,21.87
2023-01-19T21:29:13.765Z,21.57
2023-01-19T21:31:43.067Z,22.30
2023-01-19T21:34:11.789Z,23.47
2023-01-19T21:36:40.291Z,23.77
2023-01-19T21:39:09.228Z,22.13
2023-01-19T21:41:39.944Z,22.53
2023-01-19T21:44:14.049Z,23.97
2023-01-19T21:46:45.607Z,22.60
2023-01-19T21:49:21.449Z,23.70
2023-01-19T21:51:52.886Z,21.33
2023-01-19T21:54:20.858Z,22.10
2023-01-19T21:56:48.514Z,21.67
2023-01-19T21:59:18.008Z,23.37
2023-01-19T22:01:47.134Z,21.77
2023-01-19T22:04:27.204Z,22.90
2023-01-19T22:06:57.217Z,24.87
2023-01-19T22:09:25.640Z,23.63
2023-01-19T22:11:53.685Z,26.70
2023-01-19T22:14:21.372Z,22.30
2023-01-19T22:16:49.326Z,26.03
2023-01-19T22:19:17.803Z,23.43
2023-01-19T22:21:46.406Z,23.07
2023-01-19T22:24:17.383Z,22.30
2023-01-19T22:26:45.356Z,24.87
2023-01-19T22:29:13.981Z,24.60
2023-01-19T22:31:43.267Z,25.03
2023-01-19T22:34:12.241Z,25.60
2023-01-19T22:36:40.907Z,23.03
2023-01-19T22:39:14.580Z,23.27
2023-01-19T22:41:47.420Z,24.03
2023-01-19T22:44:21.389Z,25.20
2023-01-19T22:46:54.938Z,25.33
2023-01-19T22:49:23.125Z,23.00
2023-01-19T22:51:50.749Z,24.10
2023-01-19T22:54:18.555Z,25.87
2023-01-19T22:56:46.329Z,24.57
2023-01-19T22:59:14.237Z,24.40
2023-01-19T23:01:44.576Z,25.03
2023-01-19T23:04:16.587Z,27.37
2023-01-19T23:06:50.285Z,26.87
2023-01-19T23:09:19.679Z,24.60
2023-01-19T23:11:53.028Z,26.03
2023-01-19T23:14:22.743Z,28.10
2023-01-19T23:16:50.707Z,29.80
2023-01-19T23:19:19.696Z,28.10
2023-01-19T23:21:51.092Z,25.67
2023-01-19T23:24:19.208Z,30.03
2023-01-19T23:26:49.305Z,29.17
2023-01-19T23:29:18.125Z,28.40
2023-01-19T23:31:49.928Z,27.00
2023-01-19T23:34:18.163Z,31.07
2023-01-19T23:36:46.151Z,27.40
2023-01-19T23:39:20.680Z,30.90
2023-01-19T23:41:49.773Z,28.93
2023-01-19T23:44:19.040Z,28.47
2023-01-19T23:46:47.558Z,34.50
2023-01-19T23:49:15.535Z,29.23
2023-01-19T23:51:43.381Z,30.10
2023-01-19T23:54:12.399Z,31.73
2023-01-19T23:56:42.704Z,31.47
2023-01-19T23:59:16.544Z,30.03
